• Join FlightAware (Why Join?)
  • Login
  • US Flag 
03:22AM EST


 

Airport Tracker/Info


-or-


 

Live Flight TrackerFlight Track Log ✈ N960DL ✈ 02-May-2013 ✈ KGPT - KATL

Flight Track Log - Related Links

Times and Time Zones

All times are in EDT time to prevent confusion due to time zone crossing. See the N960DL flight status page for this flight to view local times or setup timezone preferences in your user account.

Time Position Orientation Groundspeed Altitude Reporting Facility
EDT Latitude Longitude Course Direction KTS MPH feet Rate Location/Type
01:42PM 30.4186 -89.0172 58° Northeast 198 228 2,700  Level Houston Center
01:43PM 30.4781 -88.9694 35° Northeast 248 285 5,300 3,060 Climbing Houston Center
01:44PM 30.7104 -88.9031 23° Northeast  Level FlightAware Approximate
01:44PM 30.5467 -88.9131 35° Northeast 269 310 9,100  Level Houston Center
01:45PM 30.8199 -88.8677 20° North  Level FlightAware Approximate
01:45PM 30.6219 -88.8594 31° Northeast 317 365 10,100  Level Houston Center
01:46PM 30.9103 -88.8024 69° East  Level FlightAware Approximate
01:46PM 30.7075 -88.7933 34° Northeast 365 420 13,200  Level Houston Center
01:47PM 30.9716 -88.6909 58° Northeast  Level FlightAware Approximate
01:47PM 30.7947 -88.7242 34° Northeast 373 429 15,400  Level Houston Center
01:48PM 31.0322 -88.5784 58° Northeast  Level FlightAware Approximate
01:48PM 30.8919 -88.6483 34° Northeast 410 472 17,700  Level Houston Center
01:49PM 30.9922 -88.5692 34° Northeast 428 493 19,800 1,980 Climbing Houston Center
01:50PM 31.1117 -88.4628 37° Northeast 444 511 21,900 1,080 Climbing Houston Center
01:51PM 31.1878 -88.3408 54° Northeast 454 522 22,100 960 Climbing Houston Center
01:53PM 31.2647 -88.2172 54° Northeast 461 531 23,900 1,500 Climbing Houston Center
01:54PM 31.3411 -88.0919 54° Northeast 469 540 25,300 1,680 Climbing Houston Center
01:55PM 31.4214 -87.9661 53° Northeast 448 516 27,300 2,220 Climbing Atlanta Center
01:56PM 31.4961 -87.8453 54° Northeast 454 522 29,700 1,860 Climbing Atlanta Center
01:57PM 31.5706 -87.7242 54° Northeast 460 529 31,100 1,200 Climbing Atlanta Center
01:58PM 31.6453 -87.6028 54° Northeast 460 529 32,200 900 Climbing Atlanta Center
01:59PM 31.7153 -87.4833 55° Northeast 460 529 33,000 360 Climbing Atlanta Center
02:00PM 31.7917 -87.3617 54° Northeast 460 529 33,000  Level Atlanta Center
02:01PM 31.8511 -87.2492 58° Northeast 454 522 33,000  Level Atlanta Center
02:02PM 31.9253 -87.1244 55° Northeast 454 522 33,000  Level Atlanta Center
02:03PM 32.0011 -87.0022 54° Northeast 454 522 33,000  Level Atlanta Center
02:04PM 32.0750 -86.8772 55° Northeast 461 531 33,000  Level Atlanta Center
02:05PM 32.1489 -86.7544 55° Northeast 461 531 33,000 -600 Level Atlanta Center
02:06PM 32.2372 -86.6219 52° Northeast 461 531 31,800 -1,500 Descending Atlanta Center
02:07PM 32.3106 -86.5014 54° Northeast 461 531 30,100 -1,740 Descending Atlanta Center
02:08PM 32.3672 -86.3847 60° Northeast 455 524 28,400 -1,800 Descending Atlanta Center
02:09PM 32.4361 -86.2636 56° Northeast 446 513 26,500 -1,860 Descending Atlanta Center
02:10PM 32.5200 -86.1228 55° Northeast 453 521 24,700 -1,260 Descending Atlanta Center
02:11PM 32.5953 -86.0014 54° Northeast 458 527 24,000 -360 Descending Atlanta Center
02:12PM 32.6658 -85.8794 55° Northeast 458 527 24,000  Level Atlanta Center
02:13PM 32.7406 -85.7600 53° Northeast 452 520 24,000 -300 Level Atlanta Center
02:14PM 32.8133 -85.6381 55° Northeast 452 520 23,400 -1,260 Descending Atlanta Center
02:15PM 32.8900 -85.5181 53° Northeast 447 514 21,500 -2,340 Descending Atlanta Center
02:16PM 32.9558 -85.4028 56° Northeast 442 509 18,800 -2,820 Descending Atlanta Center
02:17PM 33.0261 -85.2925 53° Northeast 431 496 15,900 -2,400 Descending Atlanta Center
02:18PM 33.0833 -85.1992 54° Northeast 404 465 14,100 -1,980 Descending Atlanta Center
02:19PM 33.1425 -85.1006 54° Northeast 372 428 12,000 -1,080 Descending Atlanta Center
02:20PM 33.1975 -85.0119 53° Northeast 339 390 12,000 -600 Level Atlanta Center
02:21PM 33.2503 -84.9456 46° Northeast 296 341 10,900 -1,140 Descending Atlanta Center
02:22PM 33.3031 -84.8764 48° Northeast 279 321 9,800 -1,200 Descending Atlanta Center
02:23PM 33.3681 -84.8397 25° Northeast 237 273 8,500 -1,380 Descending Atlanta Center
02:23PM 33.3833 -84.8333 19° North 249 287 8,000 -1,440 Descending Atlanta TRACON
02:24PM 33.4500 -84.8333 360° North 243 280 6,600 -1,560 Descending Atlanta TRACON
02:25PM 33.5167 -84.8500 348° North 252 290 4,900 -1,500 Descending Atlanta TRACON
02:26PM 33.5469 -84.9011 305° West 224 258 4,100 -540 Descending Atlanta Center
02:27PM 33.5928 -84.9067 354° North 184 212 4,000 -60 Descending Atlanta Center
02:28PM 33.6167 -84.8333 69° East 203 234 4,000  Level Atlanta TRACON
02:29PM 33.6167 -84.7667 90° East 196 226 4,000  Level Atlanta TRACON
02:30PM 33.6167 -84.7000 90° East 190 219 4,000  Level Atlanta TRACON
02:31PM 33.6167 -84.6333 90° East 165 190 4,000  Level Atlanta TRACON